createdAt,value
2022-12-12T00:00:10.542Z,1.70
2022-12-12T00:02:40.800Z,2.38
2022-12-12T00:05:10.230Z,2.33
2022-12-12T00:07:37.741Z,2.95
2022-12-12T00:10:05.651Z,2.08
2022-12-12T00:12:32.723Z,3.45
2022-12-12T00:15:00.362Z,2.88
2022-12-12T00:17:27.950Z,2.80
2022-12-12T00:19:55.381Z,3.92
2022-12-12T00:22:22.715Z,4.15
2022-12-12T00:24:50.226Z,3.55
2022-12-12T00:27:17.542Z,2.25
2022-12-12T00:29:44.706Z,2.42
2022-12-12T00:32:11.960Z,2.80
2022-12-12T00:34:39.127Z,1.77
2022-12-12T00:37:06.317Z,2.28
2022-12-12T00:39:33.301Z,2.63
2022-12-12T00:42:01.022Z,2.28
2022-12-12T00:44:28.094Z,3.55
2022-12-12T00:46:55.127Z,3.38
2022-12-12T00:49:22.340Z,2.45
2022-12-12T00:51:49.894Z,3.13
2022-12-12T00:54:17.056Z,4.93
2022-12-12T00:56:44.232Z,4.55
2022-12-12T00:59:11.776Z,2.72
2022-12-12T01:01:38.908Z,2.58
2022-12-12T01:04:06.017Z,1.92
2022-12-12T01:06:35.731Z,2.13
2022-12-12T01:09:03.010Z,3.08
2022-12-12T01:11:30.303Z,3.85
2022-12-12T01:13:57.353Z,3.13
2022-12-12T01:16:25.225Z,2.90
2022-12-12T01:18:52.580Z,3.85
2022-12-12T01:21:20.681Z,3.30
2022-12-12T01:23:48.519Z,3.63
2022-12-12T01:26:19.260Z,3.03
2022-12-12T01:28:46.717Z,2.97
2022-12-12T01:31:14.441Z,3.42
2022-12-12T01:33:46.323Z,4.57
2022-12-12T01:36:16.914Z,4.18
2022-12-12T01:38:46.465Z,4.38
2022-12-12T01:41:15.040Z,2.78
2022-12-12T01:43:42.729Z,3.95
2022-12-12T01:46:33.463Z,4.25
2022-12-12T01:49:09.845Z,3.13
2022-12-12T01:51:42.237Z,4.55
2022-12-12T01:54:18.131Z,6.22
2022-12-12T01:56:48.408Z,5.47
2022-12-12T01:59:19.460Z,5.00
2022-12-12T02:01:47.981Z,4.30
2022-12-12T02:04:17.770Z,4.68
2022-12-12T02:06:51.436Z,7.72
2022-12-12T02:09:20.912Z,7.07
2022-12-12T02:11:56.473Z,6.03
2022-12-12T02:14:36.835Z,4.63
2022-12-12T02:17:20.166Z,3.33
2022-12-12T02:20:23.421Z,4.60
2022-12-12T02:23:12.045Z,4.30
2022-12-12T02:26:08.214Z,7.95
2022-12-12T02:28:47.168Z,5.20
2022-12-12T02:31:26.233Z,7.05
2022-12-12T02:34:00.018Z,5.35
2022-12-12T02:37:05.444Z,6.93
2022-12-12T02:39:44.612Z,6.97
2022-12-12T02:42:41.092Z,6.15
2022-12-12T02:45:17.065Z,4.13
2022-12-12T02:47:52.876Z,4.82
2022-12-12T02:50:26.011Z,6.38
2022-12-12T02:52:53.161Z,5.53
2022-12-12T02:55:20.786Z,6.03
2022-12-12T02:57:48.961Z,7.43
2022-12-12T03:00:20.353Z,5.38
2022-12-12T03:02:50.517Z,5.72
2022-12-12T03:05:36.351Z,3.22
2022-12-12T03:08:14.465Z,5.25
2022-12-12T03:10:48.104Z,3.88
2022-12-12T03:13:30.378Z,4.68
2022-12-12T03:16:13.664Z,3.83
2022-12-12T03:18:52.638Z,6.15
2022-12-12T03:21:31.952Z,6.60
2022-12-12T03:24:11.354Z,7.65
2022-12-12T03:26:52.431Z,5.72
2022-12-12T03:29:26.181Z,4.28
2022-12-12T03:34:31.097Z,5.63
2022-12-12T03:37:09.458Z,10.13
2022-12-12T03:39:40.596Z,6.53
2022-12-12T03:42:20.210Z,6.37
2022-12-12T03:44:55.735Z,7.20
2022-12-12T03:47:48.589Z,8.27
2022-12-12T03:50:42.532Z,7.97
2022-12-12T03:53:16.228Z,6.65
2022-12-12T03:55:52.095Z,3.58
2022-12-12T03:58:35.051Z,8.88
2022-12-12T04:01:08.647Z,6.75
2022-12-12T04:04:09.646Z,7.35
2022-12-12T04:06:46.086Z,6.22
2022-12-12T04:09:35.206Z,10.27
2022-12-12T04:12:37.526Z,8.98
2022-12-12T04:15:17.874Z,6.38
2022-12-12T04:17:51.130Z,7.60
2022-12-12T04:21:01.422Z,7.97
2022-12-12T04:23:49.559Z,5.07
2022-12-12T04:26:39.815Z,8.20
2022-12-12T04:29:14.971Z,6.97
2022-12-12T04:31:57.413Z,8.88
2022-12-12T04:34:34.516Z,9.07
2022-12-12T04:37:06.402Z,8.73
2022-12-12T04:39:37.184Z,6.37
2022-12-12T04:42:06.145Z,9.23
2022-12-12T04:44:35.277Z,6.25
2022-12-12T04:47:04.167Z,7.15
2022-12-12T04:49:33.871Z,6.90
2022-12-12T04:52:08.810Z,6.07
2022-12-12T04:54:50.730Z,4.45
2022-12-12T04:57:26.524Z,5.07
2022-12-12T04:59:54.259Z,7.82
2022-12-12T05:02:34.495Z,7.65
2022-12-12T05:05:12.433Z,8.30
2022-12-12T05:07:43.435Z,5.53
2022-12-12T05:10:15.000Z,5.72
2022-12-12T05:12:48.983Z,5.25
2022-12-12T05:15:18.857Z,8.32
2022-12-12T05:17:58.512Z,6.20
2022-12-12T05:20:25.826Z,5.63
2022-12-12T05:22:52.972Z,7.00
2022-12-12T05:25:22.241Z,6.10
2022-12-12T05:27:49.277Z,8.00
2022-12-12T05:30:16.963Z,6.38
2022-12-12T05:32:44.704Z,3.83
2022-12-12T05:35:16.213Z,5.97
2022-12-12T05:37:48.245Z,8.52
2022-12-12T05:40:20.119Z,7.15
2022-12-12T05:42:48.998Z,6.90
2022-12-12T05:45:18.152Z,7.35
2022-12-12T05:47:47.279Z,8.73
2022-12-12T05:50:15.183Z,6.07
2022-12-12T05:52:43.928Z,7.50
2022-12-12T05:55:14.877Z,7.95
2022-12-12T05:57:46.105Z,6.70
2022-12-12T06:00:14.659Z,8.65
2022-12-12T06:02:43.368Z,8.50
2022-12-12T06:05:11.195Z,5.38
2022-12-12T06:07:39.806Z,8.50
2022-12-12T06:10:08.345Z,8.45
2022-12-12T06:12:38.189Z,5.85
2022-12-12T06:15:07.578Z,8.20
2022-12-12T06:17:38.728Z,6.28
2022-12-12T06:20:07.538Z,6.40
2022-12-12T06:22:36.693Z,5.93
2022-12-12T06:25:05.265Z,6.97
2022-12-12T06:27:33.300Z,7.57
2022-12-12T06:30:01.532Z,12.32
2022-12-12T06:32:30.571Z,9.40
2022-12-12T06:34:59.431Z,8.05
2022-12-12T06:37:28.490Z,9.73
2022-12-12T06:39:56.648Z,7.22
2022-12-12T06:42:25.853Z,7.45
2022-12-12T06:44:53.623Z,6.80
2022-12-12T06:47:21.165Z,9.52
2022-12-12T06:49:49.207Z,10.18
2022-12-12T06:52:17.108Z,4.82
2022-12-12T06:54:44.467Z,7.55
2022-12-12T06:57:13.203Z,12.20
2022-12-12T06:59:40.822Z,11.15
2022-12-12T07:02:11.526Z,11.25
2022-12-12T07:04:39.495Z,9.60
2022-12-12T07:07:07.299Z,9.43
2022-12-12T07:09:36.928Z,9.90
2022-12-12T07:12:05.471Z,9.93
2022-12-12T07:14:33.272Z,10.90
2022-12-12T07:17:01.258Z,9.43
2022-12-12T07:19:29.585Z,8.40
2022-12-12T07:21:57.330Z,10.68
2022-12-12T10:00:18.153Z,9.40
2022-12-12T10:02:55.332Z,9.48
2022-12-12T10:05:27.299Z,9.63
2022-12-12T10:08:01.071Z,11.57
2022-12-12T10:10:39.132Z,13.63
2022-12-12T10:13:19.131Z,12.55
2022-12-12T10:16:09.297Z,12.80
2022-12-12T10:19:03.417Z,9.75
2022-12-12T10:21:33.376Z,12.50
2022-12-12T10:24:25.399Z,8.88
2022-12-12T10:26:54.828Z,9.73
2022-12-12T10:29:26.120Z,12.35
2022-12-12T10:32:23.589Z,13.30
2022-12-12T10:38:21.488Z,8.90
2022-12-12T10:40:57.102Z,10.73
2022-12-12T10:43:34.538Z,11.02
2022-12-12T10:46:17.879Z,13.65
2022-12-12T10:48:47.362Z,10.93
2022-12-12T10:51:18.026Z,10.38
2022-12-12T10:57:20.178Z,9.25
2022-12-12T10:59:48.928Z,9.05
2022-12-12T11:05:25.258Z,8.40
2022-12-12T11:08:22.836Z,12.85
2022-12-12T11:11:42.280Z,8.65
2022-12-12T11:14:27.435Z,13.30
2022-12-12T11:16:54.583Z,8.15
2022-12-12T11:19:24.090Z,11.70
2022-12-12T11:21:53.615Z,10.10
2022-12-12T11:24:29.947Z,10.38
2022-12-12T11:26:59.945Z,9.02
2022-12-12T11:29:48.764Z,10.32
2022-12-12T11:32:29.045Z,9.45
2022-12-12T11:35:02.049Z,15.55
2022-12-12T11:37:46.863Z,8.85
2022-12-12T11:40:33.201Z,7.65
2022-12-12T11:43:19.164Z,10.73
2022-12-12T11:46:19.369Z,8.73
2022-12-12T11:48:52.610Z,7.95
2022-12-12T11:51:38.120Z,8.13
2022-12-12T11:54:15.485Z,7.00
2022-12-12T11:56:54.108Z,9.52
2022-12-12T11:59:33.176Z,12.38
2022-12-12T12:02:41.201Z,8.98
2022-12-12T12:05:46.104Z,7.45
2022-12-12T12:08:15.557Z,12.45
2022-12-12T12:11:10.699Z,7.80
2022-12-12T12:13:41.059Z,10.65
2022-12-12T12:16:20.528Z,9.88
2022-12-12T12:18:51.184Z,12.75
2022-12-12T12:21:24.343Z,9.70
2022-12-12T12:24:13.366Z,8.75
2022-12-12T12:27:01.523Z,7.57
2022-12-12T12:29:45.473Z,12.10
2022-12-12T12:33:00.153Z,8.75
2022-12-12T12:35:42.310Z,9.25
2022-12-12T12:38:27.426Z,8.50
2022-12-12T12:41:14.334Z,11.25
2022-12-12T12:44:19.952Z,13.43
2022-12-12T12:47:16.645Z,6.65
2022-12-12T12:50:07.129Z,9.02
2022-12-12T12:52:49.033Z,6.28
2022-12-12T12:55:25.432Z,3.75
2022-12-12T12:57:53.623Z,6.82
2022-12-12T13:00:27.783Z,8.13
2022-12-12T13:03:18.733Z,8.48
2022-12-12T13:05:55.189Z,10.73
2022-12-12T13:08:44.954Z,7.43
2022-12-12T13:11:38.808Z,4.68
2022-12-12T13:14:19.636Z,8.88
2022-12-12T13:16:49.713Z,7.00
2022-12-12T13:19:41.218Z,9.55
2022-12-12T13:22:17.185Z,9.57
2022-12-12T13:24:54.958Z,10.93
2022-12-12T13:27:50.644Z,9.88
2022-12-12T13:30:36.711Z,13.50
2022-12-12T13:33:14.341Z,8.57
2022-12-12T13:35:46.465Z,8.07
2022-12-12T13:38:34.013Z,8.10
2022-12-12T13:41:08.469Z,11.07
2022-12-12T13:43:39.070Z,10.60
2022-12-12T13:46:29.119Z,9.68
2022-12-12T13:49:16.165Z,11.88
2022-12-12T13:51:45.762Z,7.53
2022-12-12T13:54:14.603Z,8.40
2022-12-12T13:56:47.102Z,10.95
2022-12-12T13:59:26.474Z,8.98
2022-12-12T14:02:22.723Z,10.93
2022-12-12T14:05:13.773Z,6.85
2022-12-12T18:25:35.921Z,6.07
2022-12-12T18:28:02.745Z,8.23
2022-12-12T18:30:28.921Z,8.13
2022-12-12T18:33:02.640Z,6.35
2022-12-12T18:35:30.491Z,16.88
2022-12-12T18:37:57.613Z,8.20
2022-12-12T18:40:26.155Z,12.05
2022-12-12T18:42:53.351Z,14.13
2022-12-12T18:45:20.621Z,13.50
2022-12-12T18:47:47.591Z,7.97
2022-12-12T18:50:14.606Z,11.50
2022-12-12T18:52:41.543Z,11.00
2022-12-12T18:55:08.646Z,10.40
2022-12-12T18:57:35.456Z,11.05
2022-12-12T19:00:03.107Z,6.95
2022-12-12T19:02:29.768Z,8.13
2022-12-12T19:04:58.899Z,17.58
2022-12-12T19:07:25.871Z,7.70
2022-12-12T19:09:53.358Z,10.80
2022-12-12T19:12:20.973Z,12.93
2022-12-12T19:17:35.865Z,10.57
2022-12-12T19:20:03.121Z,16.50
2022-12-12T19:22:46.924Z,10.18
2022-12-12T19:25:16.059Z,12.23
2022-12-12T19:27:43.828Z,9.32
2022-12-12T19:30:12.932Z,8.98
2022-12-12T19:32:40.109Z,11.75
2022-12-12T19:35:07.543Z,9.48
2022-12-12T19:37:36.606Z,8.88
2022-12-12T19:40:06.598Z,6.95
2022-12-12T19:42:33.917Z,9.30
2022-12-12T19:45:00.936Z,10.45
2022-12-12T19:47:28.284Z,17.02
2022-12-12T19:49:55.508Z,12.10
2022-12-12T19:52:22.931Z,15.43
2022-12-12T19:54:50.221Z,12.52
2022-12-12T19:57:17.457Z,12.95
2022-12-12T19:59:44.762Z,15.15
2022-12-12T20:02:11.931Z,16.75
2022-12-12T20:04:39.620Z,19.83
2022-12-12T20:07:07.011Z,12.70
2022-12-12T20:09:36.124Z,14.57
2022-12-12T20:12:03.941Z,13.60
2022-12-12T20:14:33.795Z,14.85
2022-12-12T20:17:03.026Z,15.43
2022-12-12T20:19:33.033Z,11.70
2022-12-12T20:22:02.147Z,14.68
2022-12-12T20:24:30.783Z,18.23
2022-12-12T20:26:59.859Z,16.20
2022-12-12T20:29:27.543Z,12.25
2022-12-12T20:31:55.111Z,15.70
2022-12-12T20:34:24.620Z,10.13
2022-12-12T20:36:55.516Z,15.65
2022-12-12T20:39:25.053Z,9.52
2022-12-12T20:41:53.947Z,8.25
2022-12-12T20:44:22.812Z,13.43
2022-12-12T20:46:49.855Z,12.00
2022-12-12T20:49:19.885Z,12.25
2022-12-12T20:51:58.009Z,16.95
2022-12-12T20:54:27.974Z,18.73
2022-12-12T20:56:55.565Z,17.10
2022-12-12T20:59:22.800Z,16.60
2022-12-12T21:01:50.119Z,14.93
2022-12-12T21:04:17.355Z,18.58
2022-12-12T21:06:48.625Z,18.45
2022-12-12T21:09:23.192Z,14.68
2022-12-12T21:11:53.934Z,27.73
2022-12-12T21:14:21.314Z,38.05
2022-12-12T21:16:48.663Z,53.47
2022-12-12T21:19:16.303Z,29.67
2022-12-12T21:21:44.177Z,20.33
2022-12-12T21:24:16.250Z,23.85
2022-12-12T21:26:44.261Z,22.63
2022-12-12T21:29:11.741Z,20.58
2022-12-12T21:31:49.836Z,26.38
2022-12-12T21:34:20.284Z,32.38
2022-12-12T21:36:54.004Z,26.27
2022-12-12T21:39:24.324Z,18.40
2022-12-12T21:41:51.791Z,18.50
2022-12-12T21:44:20.053Z,17.17
2022-12-12T21:46:48.088Z,16.85
2022-12-12T21:49:41.507Z,22.38
2022-12-12T21:52:12.896Z,18.35
2022-12-12T21:54:40.279Z,23.00
2022-12-12T21:57:08.273Z,18.80
2022-12-12T21:59:37.784Z,17.45
2022-12-12T22:02:06.536Z,13.63
2022-12-12T22:04:33.516Z,19.20
2022-12-12T22:07:00.662Z,16.98
2022-12-12T22:09:28.054Z,22.27
2022-12-12T22:12:02.915Z,24.35
2022-12-12T22:14:31.525Z,25.35
2022-12-12T22:16:59.094Z,17.02
2022-12-12T22:19:26.447Z,16.63
2022-12-12T22:21:53.713Z,13.80
2022-12-12T22:24:20.875Z,19.95
2022-12-12T22:26:50.283Z,16.35
2022-12-12T22:29:19.433Z,9.35
2022-12-12T22:31:50.100Z,13.73
2022-12-12T22:34:20.977Z,15.98
2022-12-12T22:36:48.840Z,17.33
2022-12-12T22:39:19.921Z,14.35
2022-12-12T22:41:47.048Z,13.98
2022-12-12T22:44:19.791Z,16.98
2022-12-12T22:46:49.181Z,24.13
2022-12-12T22:49:22.882Z,16.10
2022-12-12T22:51:50.359Z,14.13
2022-12-12T22:54:17.991Z,18.55
2022-12-12T22:56:45.530Z,17.88
2022-12-12T22:59:14.264Z,20.67
2022-12-12T23:01:42.616Z,15.73
2022-12-12T23:04:13.065Z,16.10
2022-12-12T23:06:41.417Z,13.63
2022-12-12T23:09:17.913Z,22.38
2022-12-12T23:11:45.464Z,16.85
2022-12-12T23:14:15.916Z,20.27
2022-12-12T23:16:44.444Z,18.50
2022-12-12T23:19:14.507Z,20.27
2022-12-12T23:21:41.888Z,17.95
2022-12-12T23:24:09.544Z,13.63
2022-12-12T23:26:37.530Z,17.00
2022-12-12T23:29:08.302Z,16.17
2022-12-12T23:31:37.730Z,16.58
2022-12-12T23:34:08.629Z,20.98
2022-12-12T23:36:36.006Z,20.02
2022-12-12T23:39:06.591Z,18.73
2022-12-12T23:41:35.478Z,19.45
2022-12-12T23:44:03.267Z,20.50
2022-12-12T23:46:33.858Z,22.25
2022-12-12T23:49:20.746Z,21.80
2022-12-12T23:51:52.757Z,20.95
2022-12-12T23:54:35.193Z,16.27
2022-12-12T23:57:03.163Z,15.63
2022-12-12T23:59:31.551Z,15.48
